createdAt,value
2018-12-31T00:02:01.288Z,35.63
2018-12-31T00:04:30.226Z,36.00
2018-12-31T00:06:58.913Z,38.00
2018-12-31T00:09:27.655Z,36.17
2018-12-31T00:11:57.170Z,42.30
2018-12-31T00:14:25.616Z,40.03
2018-12-31T00:16:54.326Z,42.10
2018-12-31T00:19:23.015Z,40.03
2018-12-31T00:21:51.506Z,39.67
2018-12-31T00:24:23.388Z,38.60
2018-12-31T00:26:55.895Z,35.40
2018-12-31T00:29:24.319Z,37.10
2018-12-31T00:31:53.068Z,29.33
2018-12-31T00:34:21.870Z,31.57
2018-12-31T00:36:50.323Z,36.00
2018-12-31T00:39:18.783Z,33.83
2018-12-31T00:41:47.272Z,34.50
2018-12-31T00:44:16.046Z,34.03
2018-12-31T00:46:44.629Z,33.17
2018-12-31T00:49:13.378Z,32.53
2018-12-31T00:51:41.802Z,29.20
2018-12-31T00:54:10.492Z,27.50
2018-12-31T00:56:39.308Z,28.23
2018-12-31T00:59:08.010Z,24.43
2018-12-31T01:01:36.688Z,27.10
2018-12-31T01:04:05.132Z,22.23
2018-12-31T01:06:33.636Z,25.03
2018-12-31T01:09:02.337Z,23.90
2018-12-31T01:11:30.681Z,22.83
2018-12-31T01:13:59.088Z,20.73
2018-12-31T01:16:27.823Z,19.93
2018-12-31T01:18:56.489Z,21.40
2018-12-31T01:21:25.195Z,21.73
2018-12-31T01:23:53.909Z,23.57
2018-12-31T01:26:22.578Z,23.53
2018-12-31T01:28:51.287Z,22.50
2018-12-31T01:31:20.049Z,24.10
2018-12-31T01:33:48.732Z,23.27
2018-12-31T01:36:17.551Z,23.50
2018-12-31T01:38:46.289Z,23.40
2018-12-31T01:41:15.103Z,25.80
2018-12-31T01:43:43.518Z,26.93
2018-12-31T01:46:12.012Z,24.43
2018-12-31T01:48:40.790Z,27.27
2018-12-31T01:51:11.459Z,25.57
2018-12-31T01:53:39.900Z,28.13
2018-12-31T01:56:08.613Z,27.30
2018-12-31T01:58:37.037Z,23.93
2018-12-31T02:01:05.760Z,26.53
2018-12-31T02:03:34.453Z,23.93
2018-12-31T02:06:03.203Z,29.47
2018-12-31T02:08:31.967Z,26.00
2018-12-31T02:11:00.701Z,29.73
2018-12-31T02:13:29.181Z,28.70
2018-12-31T02:15:57.919Z,30.13
2018-12-31T02:18:26.343Z,26.60
2018-12-31T02:20:54.759Z,31.33
2018-12-31T02:23:23.233Z,27.73
2018-12-31T02:25:52.018Z,28.17
2018-12-31T02:28:20.752Z,30.57
2018-12-31T02:30:49.656Z,27.40
2018-12-31T02:33:18.198Z,27.70
2018-12-31T02:35:46.884Z,30.50
2018-12-31T02:38:15.682Z,27.63
2018-12-31T02:40:44.417Z,30.80
2018-12-31T02:43:12.833Z,29.43
2018-12-31T02:45:41.532Z,27.17
2018-12-31T02:48:10.233Z,28.00
2018-12-31T02:50:38.916Z,25.70
2018-12-31T02:53:07.421Z,26.50
2018-12-31T02:55:35.906Z,29.10
2018-12-31T02:58:04.640Z,28.53
2018-12-31T03:00:33.463Z,28.77
2018-12-31T03:03:02.161Z,29.33
2018-12-31T03:05:30.953Z,30.73
2018-12-31T03:07:59.633Z,30.10
2018-12-31T03:10:28.322Z,27.27
2018-12-31T03:12:57.069Z,27.97
2018-12-31T03:15:25.764Z,29.97
2018-12-31T03:17:54.212Z,29.70
2018-12-31T03:20:22.875Z,30.20
2018-12-31T03:22:51.649Z,28.40
2018-12-31T03:25:20.365Z,26.57
2018-12-31T03:27:49.121Z,29.27
2018-12-31T03:30:17.828Z,26.47
2018-12-31T03:32:46.583Z,26.03
2018-12-31T03:35:15.305Z,27.43
2018-12-31T03:37:44.155Z,26.33
2018-12-31T03:40:12.625Z,28.63
2018-12-31T03:42:41.297Z,25.77
2018-12-31T03:45:10.080Z,26.67
2018-12-31T03:47:38.525Z,26.63
2018-12-31T03:50:07.807Z,26.63
2018-12-31T03:52:36.234Z,27.10
2018-12-31T03:55:04.841Z,28.47
2018-12-31T03:57:33.632Z,28.17
2018-12-31T04:00:02.341Z,31.80
2018-12-31T04:02:30.827Z,28.87
2018-12-31T04:04:59.419Z,31.13
2018-12-31T04:07:28.180Z,32.10
2018-12-31T04:09:56.937Z,33.70
2018-12-31T04:12:25.644Z,34.57
2018-12-31T04:14:54.338Z,28.37
2018-12-31T04:17:23.072Z,40.53
2018-12-31T04:19:53.395Z,28.47
2018-12-31T04:22:21.877Z,33.70
2018-12-31T04:24:50.313Z,31.90
2018-12-31T04:27:19.072Z,32.30
2018-12-31T04:29:47.787Z,31.70
2018-12-31T04:32:16.252Z,36.07
2018-12-31T04:34:44.749Z,36.70
2018-12-31T04:37:13.429Z,35.20
2018-12-31T04:39:42.185Z,38.17
2018-12-31T04:42:10.602Z,35.17
2018-12-31T04:44:38.962Z,37.60
2018-12-31T04:47:07.430Z,37.10
2018-12-31T04:49:35.885Z,40.63
2018-12-31T04:52:04.643Z,37.33
2018-12-31T04:54:33.368Z,34.27
2018-12-31T04:57:02.106Z,43.97
2018-12-31T04:59:30.775Z,36.80
2018-12-31T05:01:59.506Z,39.10
2018-12-31T05:04:28.232Z,40.93
2018-12-31T05:06:57.022Z,37.87
2018-12-31T05:09:25.730Z,47.80
2018-12-31T05:11:54.429Z,49.03
2018-12-31T05:14:24.717Z,46.63
2018-12-31T05:16:53.245Z,41.23
2018-12-31T05:19:21.935Z,52.93
2018-12-31T05:21:50.369Z,36.70
2018-12-31T05:24:18.810Z,49.23
2018-12-31T05:26:47.571Z,53.17
2018-12-31T05:29:16.279Z,48.20
2018-12-31T05:31:45.051Z,49.63
2018-12-31T05:34:14.613Z,50.20
2018-12-31T05:36:43.044Z,48.67
2018-12-31T05:39:11.478Z,53.67
2018-12-31T05:41:40.006Z,58.33
2018-12-31T05:44:08.775Z,50.30
2018-12-31T05:46:37.356Z,50.60
2018-12-31T05:49:06.073Z,54.60
2018-12-31T05:51:34.511Z,52.67
2018-12-31T05:54:03.239Z,54.00
2018-12-31T05:56:32.203Z,47.93
2018-12-31T05:59:00.728Z,54.50
2018-12-31T06:01:29.425Z,53.67
2018-12-31T06:03:58.113Z,59.43
2018-12-31T06:06:26.850Z,57.43
2018-12-31T06:08:55.610Z,50.73
2018-12-31T06:11:24.319Z,55.87
2018-12-31T06:13:53.092Z,56.70
2018-12-31T06:16:21.820Z,61.30
2018-12-31T06:18:50.520Z,60.30
2018-12-31T06:21:19.301Z,66.27
2018-12-31T06:23:48.106Z,55.93
2018-12-31T06:26:16.795Z,62.10
2018-12-31T06:28:45.237Z,60.80
2018-12-31T06:31:13.917Z,74.40
2018-12-31T06:33:42.627Z,62.70
2018-12-31T06:36:13.667Z,61.10
2018-12-31T06:38:42.149Z,68.50
2018-12-31T06:41:10.903Z,65.07
2018-12-31T06:43:39.578Z,65.33
2018-12-31T06:46:08.292Z,69.37
2018-12-31T06:48:37.119Z,73.13
2018-12-31T06:51:05.830Z,66.67
2018-12-31T06:53:34.538Z,64.73
2018-12-31T06:56:03.052Z,66.63
2018-12-31T06:58:31.476Z,65.70
2018-12-31T07:01:00.173Z,67.77
2018-12-31T07:03:28.559Z,67.80
2018-12-31T07:05:57.282Z,73.80
2018-12-31T07:08:25.737Z,67.47
2018-12-31T07:10:54.197Z,61.10
2018-12-31T07:13:22.986Z,59.37
2018-12-31T07:15:51.703Z,77.83
2018-12-31T07:18:20.233Z,65.37
2018-12-31T07:20:48.662Z,64.57
2018-12-31T07:23:17.178Z,65.10
2018-12-31T07:25:45.692Z,71.47
2018-12-31T07:28:14.543Z,69.10
2018-12-31T07:30:43.398Z,67.77
2018-12-31T07:33:11.859Z,63.70
2018-12-31T07:35:40.318Z,71.20
2018-12-31T07:38:09.003Z,65.30
2018-12-31T07:40:37.438Z,65.67
2018-12-31T07:43:06.143Z,62.70
2018-12-31T07:45:34.715Z,75.87
2018-12-31T07:48:03.144Z,81.50
2018-12-31T07:50:31.833Z,67.07
2018-12-31T07:53:00.314Z,58.30
2018-12-31T07:55:29.085Z,69.30
2018-12-31T07:57:57.827Z,71.73
2018-12-31T08:00:26.487Z,67.07
2018-12-31T08:02:54.943Z,61.10
2018-12-31T08:05:23.439Z,69.13
2018-12-31T08:07:52.129Z,67.27
2018-12-31T08:10:20.836Z,74.23
2018-12-31T08:12:49.553Z,70.67
2018-12-31T08:15:18.446Z,67.47
2018-12-31T08:17:47.171Z,73.07
2018-12-31T08:20:15.874Z,68.43
2018-12-31T08:22:44.411Z,63.40
2018-12-31T08:25:13.167Z,63.83
2018-12-31T08:27:43.362Z,73.23
2018-12-31T08:30:12.053Z,66.33
2018-12-31T08:32:42.057Z,71.60
2018-12-31T08:35:10.766Z,78.70
2018-12-31T08:37:39.493Z,70.97
2018-12-31T08:40:08.405Z,69.00
2018-12-31T08:42:37.167Z,79.07
2018-12-31T08:45:06.620Z,74.03
2018-12-31T08:47:35.392Z,82.20
2018-12-31T08:50:04.173Z,66.13
2018-12-31T08:52:32.877Z,69.03
2018-12-31T08:55:01.302Z,68.70
2018-12-31T08:57:29.992Z,69.77
2018-12-31T08:59:58.427Z,76.47
2018-12-31T09:02:27.158Z,79.87
2018-12-31T09:04:55.851Z,77.87
2018-12-31T09:07:24.594Z,77.40
2018-12-31T09:09:53.254Z,84.67
2018-12-31T09:12:21.963Z,91.97
2018-12-31T09:14:50.656Z,91.63
2018-12-31T09:17:19.416Z,84.97
2018-12-31T09:19:48.158Z,75.63
2018-12-31T09:22:16.946Z,96.10
2018-12-31T09:24:45.638Z,91.27
2018-12-31T09:27:14.363Z,94.93
2018-12-31T09:29:42.861Z,115.10
2018-12-31T09:32:11.583Z,104.17
2018-12-31T09:34:40.279Z,101.67
2018-12-31T09:37:08.994Z,97.47
2018-12-31T09:39:37.437Z,100.27
2018-12-31T09:42:06.163Z,114.90
2018-12-31T09:44:34.839Z,99.67
2018-12-31T09:47:03.555Z,99.10
2018-12-31T09:49:32.079Z,104.23
2018-12-31T09:52:00.555Z,95.87
2018-12-31T09:54:30.838Z,104.13
2018-12-31T09:56:59.524Z,108.27
2018-12-31T09:59:30.150Z,106.53
2018-12-31T10:01:58.863Z,111.80
2018-12-31T10:04:27.743Z,106.73
2018-12-31T10:06:56.252Z,105.40
2018-12-31T10:09:24.980Z,96.23
2018-12-31T10:11:53.767Z,93.53
2018-12-31T10:14:22.515Z,92.77
2018-12-31T10:16:50.939Z,98.90
2018-12-31T10:19:19.625Z,94.97
2018-12-31T10:21:48.361Z,89.33
2018-12-31T10:24:17.052Z,94.60
2018-12-31T10:26:45.763Z,85.93
2018-12-31T10:29:14.521Z,88.17
2018-12-31T10:31:43.182Z,103.00
2018-12-31T10:34:11.880Z,98.03
2018-12-31T10:36:40.357Z,98.83
2018-12-31T10:39:09.068Z,91.67
2018-12-31T10:41:37.746Z,79.57
2018-12-31T10:44:06.652Z,91.73
2018-12-31T10:46:35.348Z,100.10
2018-12-31T10:49:03.876Z,102.37
2018-12-31T10:51:34.264Z,88.13
2018-12-31T10:54:02.953Z,69.53
2018-12-31T10:56:31.473Z,79.67
2018-12-31T10:58:59.926Z,83.37
2018-12-31T11:01:28.771Z,74.17
2018-12-31T11:03:57.494Z,76.17
2018-12-31T11:06:25.915Z,87.70
2018-12-31T11:08:54.699Z,73.73
2018-12-31T11:11:23.989Z,77.50
2018-12-31T11:13:52.693Z,83.03
2018-12-31T11:16:21.092Z,75.97
2018-12-31T11:18:49.537Z,75.03
2018-12-31T11:21:18.283Z,83.37
2018-12-31T11:23:46.784Z,68.70
2018-12-31T11:26:15.476Z,73.77
2018-12-31T11:28:44.232Z,84.13
2018-12-31T11:31:12.930Z,72.90
2018-12-31T11:33:41.612Z,75.20
2018-12-31T11:36:10.348Z,84.10
2018-12-31T11:38:38.754Z,77.27
2018-12-31T11:41:08.286Z,79.50
2018-12-31T11:43:37.005Z,79.27
2018-12-31T11:46:05.593Z,84.60
2018-12-31T11:48:34.331Z,71.43
2018-12-31T11:51:03.060Z,90.80
2018-12-31T11:53:31.832Z,68.33
2018-12-31T11:56:00.250Z,64.77
2018-12-31T11:58:28.989Z,71.00
2018-12-31T12:00:57.791Z,67.80
2018-12-31T12:03:26.318Z,81.10
2018-12-31T12:05:55.003Z,63.13
2018-12-31T12:08:23.765Z,78.20
2018-12-31T12:10:52.564Z,66.70
2018-12-31T12:13:21.260Z,63.10
2018-12-31T12:15:49.702Z,60.20
2018-12-31T12:18:18.101Z,65.20
2018-12-31T12:20:48.159Z,62.00
2018-12-31T12:23:16.951Z,74.33
2018-12-31T12:25:45.730Z,60.90
2018-12-31T12:28:14.495Z,62.80
2018-12-31T12:30:43.286Z,63.13
2018-12-31T12:33:12.062Z,65.30
2018-12-31T12:35:40.562Z,60.00
2018-12-31T12:38:09.273Z,53.03
2018-12-31T12:40:37.724Z,77.93
2018-12-31T12:43:06.510Z,57.97
2018-12-31T12:45:35.206Z,64.83
2018-12-31T12:48:06.052Z,90.10
2018-12-31T12:50:34.738Z,55.93
2018-12-31T12:53:03.483Z,66.00
2018-12-31T12:55:32.374Z,56.33
2018-12-31T12:58:02.721Z,61.90
2018-12-31T13:00:31.604Z,60.20
2018-12-31T13:03:00.019Z,48.60
2018-12-31T13:05:28.766Z,55.03
2018-12-31T13:07:57.484Z,50.17
2018-12-31T13:10:26.274Z,68.13
2018-12-31T13:12:55.058Z,54.87
2018-12-31T13:15:23.484Z,56.87
2018-12-31T13:17:51.918Z,63.37
2018-12-31T13:20:20.373Z,58.37
2018-12-31T13:22:48.914Z,58.20
2018-12-31T13:25:17.595Z,64.73
2018-12-31T13:27:46.228Z,59.70
2018-12-31T13:30:14.910Z,54.17
2018-12-31T13:32:43.628Z,60.03
2018-12-31T13:35:12.383Z,57.47
2018-12-31T13:37:40.906Z,47.03
2018-12-31T13:40:09.704Z,61.23
2018-12-31T13:42:38.772Z,51.73
2018-12-31T13:45:07.264Z,55.00
2018-12-31T13:47:35.980Z,45.50
2018-12-31T13:50:05.517Z,46.40
2018-12-31T13:52:34.390Z,60.80
2018-12-31T13:55:03.397Z,52.10
2018-12-31T13:57:31.821Z,57.50
2018-12-31T14:00:00.591Z,49.10
2018-12-31T14:02:29.015Z,64.03
2018-12-31T14:04:57.798Z,57.33
2018-12-31T14:07:27.659Z,51.77
2018-12-31T14:09:56.364Z,48.93
2018-12-31T14:12:25.141Z,46.57
2018-12-31T14:14:53.845Z,65.03
2018-12-31T14:17:22.324Z,64.83
2018-12-31T14:19:51.183Z,58.93
2018-12-31T14:22:21.046Z,49.10
2018-12-31T14:24:51.338Z,61.87
2018-12-31T14:27:20.059Z,73.90
2018-12-31T14:29:48.484Z,59.40
2018-12-31T14:32:17.198Z,61.77
2018-12-31T14:34:46.106Z,68.10
2018-12-31T14:37:14.699Z,67.13
2018-12-31T14:39:43.219Z,61.27
2018-12-31T14:42:11.600Z,56.60
2018-12-31T14:44:40.687Z,65.07
2018-12-31T14:47:09.349Z,52.73
2018-12-31T14:49:38.134Z,59.57
2018-12-31T14:52:08.406Z,51.57
2018-12-31T14:54:37.105Z,52.00
2018-12-31T14:57:05.904Z,57.60
2018-12-31T14:59:34.639Z,56.47
2018-12-31T15:02:03.539Z,57.67
2018-12-31T15:04:31.955Z,51.53
2018-12-31T15:07:00.428Z,50.83
2018-12-31T15:09:29.545Z,60.60
2018-12-31T15:11:58.381Z,64.87
2018-12-31T15:14:27.053Z,54.30
2018-12-31T15:16:55.757Z,53.30
2018-12-31T15:19:24.460Z,53.53
2018-12-31T15:21:53.627Z,56.23
2018-12-31T15:24:22.306Z,58.20
2018-12-31T15:26:51.046Z,56.60
2018-12-31T15:29:19.527Z,72.77
2018-12-31T15:31:48.227Z,61.20
2018-12-31T15:34:17.215Z,54.50
2018-12-31T15:36:45.927Z,49.17
2018-12-31T15:39:14.737Z,62.63
2018-12-31T15:41:43.182Z,50.77
2018-12-31T15:44:11.991Z,52.57
2018-12-31T15:46:42.015Z,57.07
2018-12-31T15:49:10.725Z,57.77
2018-12-31T15:51:39.172Z,54.27
2018-12-31T15:54:07.983Z,57.03
2018-12-31T15:56:36.499Z,50.17
2018-12-31T15:59:05.333Z,57.87
2018-12-31T16:01:34.194Z,56.60
2018-12-31T16:04:04.721Z,49.87
2018-12-31T16:06:34.580Z,54.97
2018-12-31T16:09:04.671Z,48.20
2018-12-31T16:11:33.140Z,53.30
2018-12-31T16:14:01.712Z,50.90
2018-12-31T16:16:30.379Z,60.47
2018-12-31T16:18:59.067Z,56.43
2018-12-31T16:21:27.602Z,44.40
2018-12-31T16:23:56.374Z,55.63
2018-12-31T16:26:24.783Z,50.37
2018-12-31T16:28:53.478Z,53.67
2018-12-31T16:31:21.993Z,80.40
2018-12-31T16:33:50.756Z,62.77
2018-12-31T16:36:19.451Z,66.77
2018-12-31T16:38:48.153Z,57.00
2018-12-31T16:41:16.845Z,54.17
2018-12-31T16:43:45.618Z,52.50
2018-12-31T16:46:14.347Z,55.87
2018-12-31T16:48:43.127Z,52.10
2018-12-31T16:51:12.153Z,60.83
2018-12-31T16:53:40.703Z,58.87
2018-12-31T16:56:09.090Z,49.47
2018-12-31T16:58:37.827Z,76.10
2018-12-31T17:01:06.562Z,64.77
2018-12-31T17:03:35.759Z,52.20
2018-12-31T17:06:04.612Z,55.40
2018-12-31T17:08:33.336Z,57.50
2018-12-31T17:11:01.830Z,58.93
2018-12-31T17:13:30.585Z,55.33
2018-12-31T17:15:59.015Z,58.70
2018-12-31T17:18:27.713Z,84.90
2018-12-31T17:20:56.197Z,59.37
2018-12-31T17:23:24.935Z,56.00
2018-12-31T17:25:53.772Z,66.17
2018-12-31T17:28:22.517Z,64.53
2018-12-31T17:30:51.284Z,54.60
2018-12-31T17:33:20.041Z,55.97
2018-12-31T17:35:48.787Z,70.20
2018-12-31T17:38:17.268Z,56.90
2018-12-31T17:40:46.205Z,58.93
2018-12-31T17:43:15.193Z,57.50
2018-12-31T17:45:43.982Z,58.23
2018-12-31T17:48:12.523Z,61.67
2018-12-31T17:50:41.193Z,71.80
2018-12-31T17:53:09.879Z,71.47
2018-12-31T17:55:38.872Z,60.80
2018-12-31T17:58:07.808Z,50.43
2018-12-31T18:00:36.637Z,53.00
2018-12-31T18:03:05.316Z,59.13
2018-12-31T18:05:34.233Z,68.20
2018-12-31T18:08:03.215Z,83.57
2018-12-31T18:10:32.201Z,83.23
2018-12-31T18:13:01.000Z,78.00
2018-12-31T18:15:29.717Z,59.00
2018-12-31T18:17:58.543Z,63.60
2018-12-31T18:20:27.385Z,60.07
2018-12-31T18:22:56.057Z,59.97
2018-12-31T18:25:24.791Z,59.17
2018-12-31T18:27:53.476Z,54.50
2018-12-31T18:30:22.294Z,64.87
2018-12-31T18:32:51.025Z,54.17
2018-12-31T18:35:19.705Z,69.37
2018-12-31T18:37:48.132Z,61.43
2018-12-31T18:40:16.587Z,64.93
2018-12-31T18:42:45.266Z,59.40
2018-12-31T18:45:13.722Z,56.70
2018-12-31T18:47:42.404Z,62.00
2018-12-31T18:50:11.199Z,57.63
2018-12-31T18:52:40.071Z,52.80
2018-12-31T18:55:08.936Z,61.33
2018-12-31T18:57:37.378Z,74.20
2018-12-31T19:00:08.038Z,62.37
2018-12-31T19:02:36.796Z,56.13
2018-12-31T19:05:06.086Z,55.63
2018-12-31T19:07:34.800Z,62.63
2018-12-31T19:10:03.509Z,52.07
2018-12-31T19:12:32.285Z,53.33
2018-12-31T19:15:01.020Z,56.23
2018-12-31T19:17:29.761Z,63.27
2018-12-31T19:19:58.254Z,50.77
2018-12-31T19:22:26.682Z,65.40
2018-12-31T19:24:55.462Z,68.67
2018-12-31T19:27:24.166Z,56.30
2018-12-31T19:29:52.945Z,65.67
2018-12-31T19:32:21.375Z,58.47
2018-12-31T19:34:50.086Z,52.67
2018-12-31T19:37:18.551Z,62.83
2018-12-31T19:39:47.268Z,50.70
2018-12-31T19:42:17.302Z,57.93
2018-12-31T19:44:47.527Z,61.33
2018-12-31T19:47:16.439Z,61.93
2018-12-31T19:49:45.074Z,59.97
2018-12-31T19:52:13.878Z,62.10
2018-12-31T19:54:42.342Z,58.70
2018-12-31T19:57:11.164Z,63.43
2018-12-31T19:59:39.925Z,64.83
2018-12-31T20:02:08.419Z,55.73
2018-12-31T20:04:37.528Z,60.63
2018-12-31T20:07:06.267Z,67.73
2018-12-31T20:09:34.961Z,61.07
2018-12-31T20:12:04.966Z,60.30
2018-12-31T20:14:33.505Z,61.20
2018-12-31T20:17:02.575Z,61.17
2018-12-31T20:19:31.328Z,69.30
2018-12-31T20:21:59.779Z,60.53
2018-12-31T20:24:28.474Z,53.80
2018-12-31T20:26:57.281Z,52.07
2018-12-31T20:29:25.994Z,56.27
2018-12-31T20:31:54.577Z,60.20
2018-12-31T20:34:23.495Z,54.03
2018-12-31T20:36:52.518Z,70.47
2018-12-31T20:39:21.137Z,59.57
2018-12-31T20:41:49.842Z,53.80
2018-12-31T20:44:18.273Z,54.90
2018-12-31T20:46:47.056Z,56.13
2018-12-31T20:49:17.031Z,55.60
2018-12-31T20:51:45.745Z,59.27
2018-12-31T20:54:14.555Z,54.77
2018-12-31T20:56:43.083Z,55.50
2018-12-31T20:59:11.917Z,58.17
2018-12-31T21:01:40.629Z,58.63
2018-12-31T21:04:09.097Z,58.50
2018-12-31T21:06:37.861Z,59.77
2018-12-31T21:09:07.924Z,57.60
2018-12-31T21:11:36.620Z,69.93
2018-12-31T21:14:05.350Z,61.70
2018-12-31T21:16:34.222Z,62.27
2018-12-31T21:19:02.682Z,62.47
2018-12-31T21:21:31.210Z,69.60
2018-12-31T21:23:59.923Z,64.13
2018-12-31T21:26:28.732Z,56.20
2018-12-31T21:28:57.499Z,57.37
2018-12-31T21:31:28.197Z,61.23
2018-12-31T21:33:56.853Z,49.83
2018-12-31T21:36:27.102Z,51.50
2018-12-31T21:38:55.824Z,48.57
2018-12-31T21:41:25.938Z,50.33
2018-12-31T21:43:54.695Z,50.30
2018-12-31T21:46:23.365Z,52.33
2018-12-31T21:48:51.834Z,56.67
2018-12-31T21:51:20.870Z,52.10
2018-12-31T21:53:49.661Z,59.70
2018-12-31T21:56:18.417Z,57.67
2018-12-31T21:58:47.236Z,55.63
2018-12-31T22:01:15.641Z,53.10
2018-12-31T22:03:44.450Z,60.57
2018-12-31T22:06:12.918Z,55.70
2018-12-31T22:08:41.688Z,62.87
2018-12-31T22:11:10.381Z,72.17
2018-12-31T22:13:39.233Z,67.77
2018-12-31T22:16:08.000Z,59.50
2018-12-31T22:18:36.471Z,61.10
2018-12-31T22:21:05.241Z,60.97
2018-12-31T22:23:33.711Z,63.53
2018-12-31T22:26:02.187Z,65.20
2018-12-31T22:28:30.644Z,59.10
2018-12-31T22:30:59.544Z,58.43
2018-12-31T22:33:29.119Z,57.73
2018-12-31T22:35:57.538Z,65.70
2018-12-31T22:38:27.456Z,64.53
2018-12-31T22:40:55.980Z,66.23
2018-12-31T22:43:25.096Z,74.77
2018-12-31T22:45:53.824Z,68.43
2018-12-31T22:48:22.550Z,74.43
2018-12-31T22:50:51.308Z,75.57
2018-12-31T22:53:20.120Z,78.53
2018-12-31T22:55:48.722Z,73.47
2018-12-31T22:58:17.261Z,60.83
2018-12-31T23:00:46.266Z,57.00
2018-12-31T23:03:15.037Z,154.97
2018-12-31T23:05:43.817Z,105.37
2018-12-31T23:08:12.525Z,382.57
2018-12-31T23:10:41.238Z,440.13
2018-12-31T23:13:09.967Z,394.60
2018-12-31T23:15:38.571Z,252.17
2018-12-31T23:18:07.313Z,262.47
2018-12-31T23:20:36.027Z,501.10
2018-12-31T23:23:04.885Z,518.70
2018-12-31T23:25:34.352Z,386.67
2018-12-31T23:28:03.079Z,311.53
2018-12-31T23:30:31.849Z,366.30
2018-12-31T23:33:00.570Z,404.73
2018-12-31T23:35:30.277Z,363.43
2018-12-31T23:37:59.754Z,421.37
2018-12-31T23:40:28.549Z,367.83
2018-12-31T23:42:57.307Z,319.10
2018-12-31T23:45:26.165Z,291.20
2018-12-31T23:47:55.224Z,257.57
2018-12-31T23:50:23.724Z,212.50
2018-12-31T23:52:52.151Z,200.63
2018-12-31T23:55:20.927Z,214.73
2018-12-31T23:57:49.633Z,161.53
